Glenwood, MN (56334)

5:36 PM CDT on August 30, 2015 (GMT -0500)
Rolling Forks Vineyards | | Change Station
CLOSE
Current Station
Personal Weather Station
Location: Glenwood, MN
Elevation: 1286 ft
Nearby Weather Stations

Elev 1286 ft 45.60 °N, 95.42 °W | Updated 9 minutes ago

Clear
Clear
79.6 °F
Feels Like 83 °F
N
7.0
Wind Variable Wind from South
Gusts 13.0 mph

Today
High -- | Low -- °F
--% Chance of Precip.
Yesterday
High -- | Low -- °F
Precip. -- in
6:40 AM 8:03 PM
Full, 98% visible
Pressure 29.88 in
Visibility 10.0 miles
Clouds Clear
Heat Index 83 °F
Dew Point 70 °F
Humidity 73%
Rainfall 0.00 in
Snow Depth Not available.
UV 3 out of 12
Pollen 10.20 out of 12
Air Quality Not available.
Flu Activity Not available.
METAR KGHW 302213Z AUTO 16012KT 10SM CLR 27/20 A2988 RMK AO2
Pressure 29.88 in
Visibility 10.0 miles
Clouds Clear
Heat Index 83 °F
Dew Point 70 °F
Humidity 73%
Rainfall 0.00 in
Snow Depth Not available.
UV 3 out of 12
Pollen 10.20 out of 12
Air Quality Not available.
Flu Activity Not available.
METAR KGHW 302213Z AUTO 16012KT 10SM CLR 27/20 A2988 RMK AO2

10-Day Weather Forecast

×

Almanac

Astronomy

Aug. 30, 2015 Rise Set
Actual Time
Civil Twilight
Nautical Twilight
Astronomical Twilight
Moon
Length of Visible Light
Length of Day
Tomorrow will be .
, % of the Moon is Illuminated

Today's Extremes

State Highs State Lows

Community

WunderPhotos

Upload Photos

1,851,074 photos uploaded!

WunderBlogs® & News

Nearby

Air Quality

  Air Quality AQ Index Pollutant
Not available.

Snow Depth

Station Depth Elevation

Earthquake Activity

City Distance Mag. Time & Date
Minimum magnitude displayed is 2.5.

Coastal Water Temperatures

Place Temperature

Stations

Nearby Weather Stations

Station Location Temp. Windchill Dew Point Humidity Wind Precip. Elev Updated Type